Portada
METAR-TAF:

METAR-TAF

Aeroports :

Cooma, Austràlia

latitud: 36-18-00S, longitud: 148-58-24E, altitud: 947 m

Observació

L'informe es va fer fa 29 minuts, a les 01:00 UTC
Vent 12 kt del Oest, variant entre Oest/Sud-Oest i Oest/Nord-Oest
Temperatura 13°C
Humitat 44%
Pressió 1014 hPa
Visibilitat 10 km o més
Núvols disperses a una alçada de 5400 ft

METAR: YCOM 010100Z AUTO 28012KT 240V300 9999 // SCT054 13/01 Q1014

Hora: 11:29 (01:29 UTC)


TAF: manca

Observacions i pronòstics meteorològics de més de 4000 aeroports (METAR i TAF).

Les estacions disponibles són els punts grocs i vermells al mapa.

Posi el ratolí al punt desitjat per veure el nom de l'estació.

Feu clic per veure les observacions i els pronòstics meteorològics.

Per canviar el mapa: feu clic els botons verds amb una creu de color negre per apropar; al botó verd amb un guió per allunyar la imatge; o en les fletxes verdes per a mapes adjacents.


METAR-TAF: